sensor_id;sensor_type;location;lat;lon;timestamp;temperature;humidity
6377;DHT22;3221;48.858;10.128;2023-04-08T00:00:29;7.00;99.90
6377;DHT22;3221;48.858;10.128;2023-04-08T00:02:56;7.00;99.90
6377;DHT22;3221;48.858;10.128;2023-04-08T00:05:23;7.00;99.90
6377;DHT22;3221;48.858;10.128;2023-04-08T00:07:50;7.10;99.90
6377;DHT22;3221;48.858;10.128;2023-04-08T00:10:18;7.10;99.90
6377;DHT22;3221;48.858;10.128;2023-04-08T00:12:46;7.00;99.90
6377;DHT22;3221;48.858;10.128;2023-04-08T00:15:13;7.00;99.90
6377;DHT22;3221;48.858;10.128;2023-04-08T00:17:40;7.00;99.90
6377;DHT22;3221;48.858;10.128;2023-04-08T00:20:08;6.90;99.90
6377;DHT22;3221;48.858;10.128;2023-04-08T00:22:35;6.90;99.90
6377;DHT22;3221;48.858;10.128;2023-04-08T00:25:02;6.90;99.90
6377;DHT22;3221;48.858;10.128;2023-04-08T00:27:32;6.90;99.90
6377;DHT22;3221;48.858;10.128;2023-04-08T00:29:59;6.90;99.90
6377;DHT22;3221;48.858;10.128;2023-04-08T00:32:27;6.90;99.90
6377;DHT22;3221;48.858;10.128;2023-04-08T00:34:55;6.90;99.90
6377;DHT22;3221;48.858;10.128;2023-04-08T00:37:22;7.00;99.90
6377;DHT22;3221;48.858;10.128;2023-04-08T00:39:49;7.00;99.90
6377;DHT22;3221;48.858;10.128;2023-04-08T00:42:16;7.00;99.90
6377;DHT22;3221;48.858;10.128;2023-04-08T00:44:43;6.90;99.90
6377;DHT22;3221;48.858;10.128;2023-04-08T00:47:14;6.70;99.90
6377;DHT22;3221;48.858;10.128;2023-04-08T00:49:42;6.90;99.90
6377;DHT22;3221;48.858;10.128;2023-04-08T00:52:09;6.90;99.90
6377;DHT22;3221;48.858;10.128;2023-04-08T00:54:37;6.90;99.90
6377;DHT22;3221;48.858;10.128;2023-04-08T00:57:05;6.90;99.90
6377;DHT22;3221;48.858;10.128;2023-04-08T00:59:32;7.00;99.90
6377;DHT22;3221;48.858;10.128;2023-04-08T01:02:14;6.80;99.90
6377;DHT22;3221;48.858;10.128;2023-04-08T01:04:55;6.90;99.90
6377;DHT22;3221;48.858;10.128;2023-04-08T01:07:30;6.90;99.90
6377;DHT22;3221;48.858;10.128;2023-04-08T01:13:08;6.80;99.90
6377;DHT22;3221;48.858;10.128;2023-04-08T01:15:37;6.90;99.90
6377;DHT22;3221;48.858;10.128;2023-04-08T01:18:13;6.90;99.90
6377;DHT22;3221;48.858;10.128;2023-04-08T01:20:42;6.90;99.90
6377;DHT22;3221;48.858;10.128;2023-04-08T01:25:45;6.90;99.90
6377;DHT22;3221;48.858;10.128;2023-04-08T01:28:15;6.90;99.90
6377;DHT22;3221;48.858;10.128;2023-04-08T01:30:44;6.90;99.90
6377;DHT22;3221;48.858;10.128;2023-04-08T01:33:14;6.90;99.90
6377;DHT22;3221;48.858;10.128;2023-04-08T01:35:42;6.90;99.90
6377;DHT22;3221;48.858;10.128;2023-04-08T01:38:13;6.90;99.90
6377;DHT22;3221;48.858;10.128;2023-04-08T01:40:41;6.90;99.90
6377;DHT22;3221;48.858;10.128;2023-04-08T01:43:09;6.80;99.90
6377;DHT22;3221;48.858;10.128;2023-04-08T01:45:37;7.00;99.90
6377;DHT22;3221;48.858;10.128;2023-04-08T01:48:04;6.80;99.90
6377;DHT22;3221;48.858;10.128;2023-04-08T01:50:33;6.80;99.90
6377;DHT22;3221;48.858;10.128;2023-04-08T01:53:01;6.80;99.90
6377;DHT22;3221;48.858;10.128;2023-04-08T01:55:32;6.80;99.90
6377;DHT22;3221;48.858;10.128;2023-04-08T01:58:00;6.80;99.90
6377;DHT22;3221;48.858;10.128;2023-04-08T02:00:30;6.80;99.90
6377;DHT22;3221;48.858;10.128;2023-04-08T02:02:58;6.80;99.90
6377;DHT22;3221;48.858;10.128;2023-04-08T02:05:26;6.80;99.90
6377;DHT22;3221;48.858;10.128;2023-04-08T02:07:52;6.80;99.90
6377;DHT22;3221;48.858;10.128;2023-04-08T02:10:20;6.90;99.90
6377;DHT22;3221;48.858;10.128;2023-04-08T02:12:47;6.80;99.90
6377;DHT22;3221;48.858;10.128;2023-04-08T02:15:14;6.80;99.90
6377;DHT22;3221;48.858;10.128;2023-04-08T02:17:59;6.80;99.90
6377;DHT22;3221;48.858;10.128;2023-04-08T02:20:34;6.80;99.90
6377;DHT22;3221;48.858;10.128;2023-04-08T02:23:19;6.80;99.90
6377;DHT22;3221;48.858;10.128;2023-04-08T02:25:47;6.80;99.90
6377;DHT22;3221;48.858;10.128;2023-04-08T02:28:17;6.80;99.90
6377;DHT22;3221;48.858;10.128;2023-04-08T02:30:50;6.80;99.90
6377;DHT22;3221;48.858;10.128;2023-04-08T02:33:22;6.80;99.90
6377;DHT22;3221;48.858;10.128;2023-04-08T02:35:52;6.70;99.90
6377;DHT22;3221;48.858;10.128;2023-04-08T02:38:21;6.70;99.90
6377;DHT22;3221;48.858;10.128;2023-04-08T02:40:50;6.60;99.90
6377;DHT22;3221;48.858;10.128;2023-04-08T02:43:17;6.90;99.90
6377;DHT22;3221;48.858;10.128;2023-04-08T02:45:44;6.80;99.90
6377;DHT22;3221;48.858;10.128;2023-04-08T02:48:11;6.70;99.90
6377;DHT22;3221;48.858;10.128;2023-04-08T02:50:38;6.80;99.90
6377;DHT22;3221;48.858;10.128;2023-04-08T02:53:07;6.70;99.90
6377;DHT22;3221;48.858;10.128;2023-04-08T02:55:36;6.80;99.90
6377;DHT22;3221;48.858;10.128;2023-04-08T02:58:03;6.60;99.90
6377;DHT22;3221;48.858;10.128;2023-04-08T03:00:30;6.70;99.90
6377;DHT22;3221;48.858;10.128;2023-04-08T03:02:57;6.70;99.90
6377;DHT22;3221;48.858;10.128;2023-04-08T03:05:25;6.70;99.90
6377;DHT22;3221;48.858;10.128;2023-04-08T03:07:52;6.60;99.90
6377;DHT22;3221;48.858;10.128;2023-04-08T03:10:19;6.60;99.90
6377;DHT22;3221;48.858;10.128;2023-04-08T03:12:46;6.60;99.90
6377;DHT22;3221;48.858;10.128;2023-04-08T03:15:13;6.60;99.90
6377;DHT22;3221;48.858;10.128;2023-04-08T03:17:40;6.60;99.90
6377;DHT22;3221;48.858;10.128;2023-04-08T03:20:08;6.60;99.90
6377;DHT22;3221;48.858;10.128;2023-04-08T03:22:35;6.60;99.90
6377;DHT22;3221;48.858;10.128;2023-04-08T03:25:02;6.60;99.90
6377;DHT22;3221;48.858;10.128;2023-04-08T03:27:30;6.60;99.90
6377;DHT22;3221;48.858;10.128;2023-04-08T03:29:57;6.60;99.90
6377;DHT22;3221;48.858;10.128;2023-04-08T03:32:24;6.70;99.90
6377;DHT22;3221;48.858;10.128;2023-04-08T03:34:51;6.70;99.90
6377;DHT22;3221;48.858;10.128;2023-04-08T03:37:19;6.70;99.90
6377;DHT22;3221;48.858;10.128;2023-04-08T03:39:46;6.70;99.90
6377;DHT22;3221;48.858;10.128;2023-04-08T03:42:13;6.80;99.90
6377;DHT22;3221;48.858;10.128;2023-04-08T03:44:40;6.70;99.90
6377;DHT22;3221;48.858;10.128;2023-04-08T03:47:07;6.60;99.90
6377;DHT22;3221;48.858;10.128;2023-04-08T03:49:34;6.70;99.90
6377;DHT22;3221;48.858;10.128;2023-04-08T03:52:00;6.70;99.90
6377;DHT22;3221;48.858;10.128;2023-04-08T03:54:27;6.70;99.90
6377;DHT22;3221;48.858;10.128;2023-04-08T03:56:54;6.70;99.90
6377;DHT22;3221;48.858;10.128;2023-04-08T03:59:21;6.60;99.90
6377;DHT22;3221;48.858;10.128;2023-04-08T04:01:48;6.70;99.90
6377;DHT22;3221;48.858;10.128;2023-04-08T04:04:17;6.60;99.90
6377;DHT22;3221;48.858;10.128;2023-04-08T04:06:44;6.50;99.90
6377;DHT22;3221;48.858;10.128;2023-04-08T04:09:11;6.70;99.90
6377;DHT22;3221;48.858;10.128;2023-04-08T04:11:38;6.60;99.90
6377;DHT22;3221;48.858;10.128;2023-04-08T04:14:05;6.60;99.90
6377;DHT22;3221;48.858;10.128;2023-04-08T04:16:32;6.90;99.90
6377;DHT22;3221;48.858;10.128;2023-04-08T04:18:59;6.70;99.90
6377;DHT22;3221;48.858;10.128;2023-04-08T04:21:26;6.70;99.90
6377;DHT22;3221;48.858;10.128;2023-04-08T04:23:53;6.60;99.90
6377;DHT22;3221;48.858;10.128;2023-04-08T04:26:20;6.60;99.90
6377;DHT22;3221;48.858;10.128;2023-04-08T04:28:47;6.70;99.90
6377;DHT22;3221;48.858;10.128;2023-04-08T04:31:22;6.70;99.90
6377;DHT22;3221;48.858;10.128;2023-04-08T04:33:49;6.70;99.90
6377;DHT22;3221;48.858;10.128;2023-04-08T04:36:16;6.70;99.90
6377;DHT22;3221;48.858;10.128;2023-04-08T04:38:44;6.70;99.90
6377;DHT22;3221;48.858;10.128;2023-04-08T04:41:13;6.60;99.90
6377;DHT22;3221;48.858;10.128;2023-04-08T04:43:41;6.50;99.90
6377;DHT22;3221;48.858;10.128;2023-04-08T04:46:08;6.60;99.90
6377;DHT22;3221;48.858;10.128;2023-04-08T04:48:35;6.60;99.90
6377;DHT22;3221;48.858;10.128;2023-04-08T04:51:02;6.60;99.90
6377;DHT22;3221;48.858;10.128;2023-04-08T04:53:29;6.60;99.90
6377;DHT22;3221;48.858;10.128;2023-04-08T04:55:57;6.60;99.90
6377;DHT22;3221;48.858;10.128;2023-04-08T04:58:27;6.60;99.90
6377;DHT22;3221;48.858;10.128;2023-04-08T05:00:54;6.50;99.90
6377;DHT22;3221;48.858;10.128;2023-04-08T05:03:22;6.60;99.90
6377;DHT22;3221;48.858;10.128;2023-04-08T05:05:52;6.70;99.90
6377;DHT22;3221;48.858;10.128;2023-04-08T05:08:20;6.60;99.90
6377;DHT22;3221;48.858;10.128;2023-04-08T05:10:47;6.70;99.90
6377;DHT22;3221;48.858;10.128;2023-04-08T05:13:17;6.70;99.90
6377;DHT22;3221;48.858;10.128;2023-04-08T05:15:44;6.50;99.90
6377;DHT22;3221;48.858;10.128;2023-04-08T05:18:11;6.40;99.90
6377;DHT22;3221;48.858;10.128;2023-04-08T05:20:38;6.50;99.90
6377;DHT22;3221;48.858;10.128;2023-04-08T05:23:06;6.60;99.90
6377;DHT22;3221;48.858;10.128;2023-04-08T05:25:33;6.50;99.90
6377;DHT22;3221;48.858;10.128;2023-04-08T05:28:00;6.40;99.90
6377;DHT22;3221;48.858;10.128;2023-04-08T05:30:27;6.50;99.90
6377;DHT22;3221;48.858;10.128;2023-04-08T05:32:54;6.60;99.90
6377;DHT22;3221;48.858;10.128;2023-04-08T05:35:25;6.50;99.90
6377;DHT22;3221;48.858;10.128;2023-04-08T05:37:52;6.50;99.90
6377;DHT22;3221;48.858;10.128;2023-04-08T05:40:19;6.50;99.90
6377;DHT22;3221;48.858;10.128;2023-04-08T05:42:46;6.50;99.90
6377;DHT22;3221;48.858;10.128;2023-04-08T05:45:13;6.30;99.90
6377;DHT22;3221;48.858;10.128;2023-04-08T05:47:41;6.40;99.90
6377;DHT22;3221;48.858;10.128;2023-04-08T05:50:09;6.60;99.90
6377;DHT22;3221;48.858;10.128;2023-04-08T05:52:40;6.50;99.90
6377;DHT22;3221;48.858;10.128;2023-04-08T05:55:08;6.50;99.90
6377;DHT22;3221;48.858;10.128;2023-04-08T05:57:35;6.50;99.90
6377;DHT22;3221;48.858;10.128;2023-04-08T06:00:06;6.50;99.90
6377;DHT22;3221;48.858;10.128;2023-04-08T06:02:36;6.50;99.90
6377;DHT22;3221;48.858;10.128;2023-04-08T06:05:03;6.60;99.90
6377;DHT22;3221;48.858;10.128;2023-04-08T06:07:32;6.60;99.90
6377;DHT22;3221;48.858;10.128;2023-04-08T06:09:59;6.60;99.90
6377;DHT22;3221;48.858;10.128;2023-04-08T06:12:26;6.50;99.90
6377;DHT22;3221;48.858;10.128;2023-04-08T06:14:54;6.50;99.90
6377;DHT22;3221;48.858;10.128;2023-04-08T06:17:21;6.50;99.90
6377;DHT22;3221;48.858;10.128;2023-04-08T06:19:49;6.50;99.90
6377;DHT22;3221;48.858;10.128;2023-04-08T06:22:16;6.60;99.90
6377;DHT22;3221;48.858;10.128;2023-04-08T06:24:43;6.40;99.90
6377;DHT22;3221;48.858;10.128;2023-04-08T06:27:09;6.40;99.90
6377;DHT22;3221;48.858;10.128;2023-04-08T06:29:36;6.60;99.90
6377;DHT22;3221;48.858;10.128;2023-04-08T06:32:03;6.60;99.90
6377;DHT22;3221;48.858;10.128;2023-04-08T06:34:32;6.50;99.90
6377;DHT22;3221;48.858;10.128;2023-04-08T06:36:58;6.40;99.90
6377;DHT22;3221;48.858;10.128;2023-04-08T06:39:26;6.40;99.90
6377;DHT22;3221;48.858;10.128;2023-04-08T06:41:52;6.40;99.90
6377;DHT22;3221;48.858;10.128;2023-04-08T06:44:36;6.40;99.90
6377;DHT22;3221;48.858;10.128;2023-04-08T06:47:03;6.50;99.90
6377;DHT22;3221;48.858;10.128;2023-04-08T06:49:30;6.40;99.90
6377;DHT22;3221;48.858;10.128;2023-04-08T06:51:57;6.50;99.90
6377;DHT22;3221;48.858;10.128;2023-04-08T06:54:23;6.40;99.90
6377;DHT22;3221;48.858;10.128;2023-04-08T06:56:50;6.40;99.90
6377;DHT22;3221;48.858;10.128;2023-04-08T06:59:17;6.40;99.90
6377;DHT22;3221;48.858;10.128;2023-04-08T07:01:44;6.50;99.90
6377;DHT22;3221;48.858;10.128;2023-04-08T07:04:12;6.50;99.90
6377;DHT22;3221;48.858;10.128;2023-04-08T07:06:39;6.50;99.90
6377;DHT22;3221;48.858;10.128;2023-04-08T07:09:06;6.60;99.90
6377;DHT22;3221;48.858;10.128;2023-04-08T07:11:33;6.80;99.90
6377;DHT22;3221;48.858;10.128;2023-04-08T07:14:00;6.70;99.90
6377;DHT22;3221;48.858;10.128;2023-04-08T07:16:27;6.60;99.90
6377;DHT22;3221;48.858;10.128;2023-04-08T07:18:54;6.80;99.90
6377;DHT22;3221;48.858;10.128;2023-04-08T07:21:21;6.60;99.90
6377;DHT22;3221;48.858;10.128;2023-04-08T07:23:48;6.50;99.90
6377;DHT22;3221;48.858;10.128;2023-04-08T07:26:15;6.50;99.90
6377;DHT22;3221;48.858;10.128;2023-04-08T07:28:42;6.50;99.90
6377;DHT22;3221;48.858;10.128;2023-04-08T07:31:17;6.60;99.90
6377;DHT22;3221;48.858;10.128;2023-04-08T07:33:44;6.60;99.90
6377;DHT22;3221;48.858;10.128;2023-04-08T07:36:12;6.60;99.90
6377;DHT22;3221;48.858;10.128;2023-04-08T07:38:39;6.70;99.90
6377;DHT22;3221;48.858;10.128;2023-04-08T07:41:07;6.50;99.90
6377;DHT22;3221;48.858;10.128;2023-04-08T07:43:34;6.40;99.90
6377;DHT22;3221;48.858;10.128;2023-04-08T07:46:04;6.60;99.90
6377;DHT22;3221;48.858;10.128;2023-04-08T07:48:31;6.70;99.90
6377;DHT22;3221;48.858;10.128;2023-04-08T07:51:07;6.40;99.90
6377;DHT22;3221;48.858;10.128;2023-04-08T07:53:37;6.40;99.90
6377;DHT22;3221;48.858;10.128;2023-04-08T07:56:12;6.30;99.90
6377;DHT22;3221;48.858;10.128;2023-04-08T07:58:39;6.30;99.90
6377;DHT22;3221;48.858;10.128;2023-04-08T08:01:20;6.50;99.90
6377;DHT22;3221;48.858;10.128;2023-04-08T08:03:51;6.60;99.90
6377;DHT22;3221;48.858;10.128;2023-04-08T08:06:20;6.60;99.90
6377;DHT22;3221;48.858;10.128;2023-04-08T08:08:47;6.60;99.90
6377;DHT22;3221;48.858;10.128;2023-04-08T08:11:14;6.60;99.90
6377;DHT22;3221;48.858;10.128;2023-04-08T08:13:41;6.60;99.90
6377;DHT22;3221;48.858;10.128;2023-04-08T08:16:09;6.60;99.90
6377;DHT22;3221;48.858;10.128;2023-04-08T08:18:38;6.70;99.90
6377;DHT22;3221;48.858;10.128;2023-04-08T08:21:06;6.60;99.90
6377;DHT22;3221;48.858;10.128;2023-04-08T08:23:33;6.60;99.90
6377;DHT22;3221;48.858;10.128;2023-04-08T08:26:05;6.60;99.90
6377;DHT22;3221;48.858;10.128;2023-04-08T08:28:32;6.60;99.90
6377;DHT22;3221;48.858;10.128;2023-04-08T08:31:00;6.60;99.90
6377;DHT22;3221;48.858;10.128;2023-04-08T08:33:29;6.70;99.90
6377;DHT22;3221;48.858;10.128;2023-04-08T08:35:56;6.80;99.90
6377;DHT22;3221;48.858;10.128;2023-04-08T08:38:25;6.80;99.90
6377;DHT22;3221;48.858;10.128;2023-04-08T08:40:56;6.80;99.90
6377;DHT22;3221;48.858;10.128;2023-04-08T08:43:24;6.70;99.90
6377;DHT22;3221;48.858;10.128;2023-04-08T08:45:55;6.80;99.90
6377;DHT22;3221;48.858;10.128;2023-04-08T08:48:22;6.80;99.90
6377;DHT22;3221;48.858;10.128;2023-04-08T08:50:49;6.80;99.90
6377;DHT22;3221;48.858;10.128;2023-04-08T08:53:16;6.70;99.90
6377;DHT22;3221;48.858;10.128;2023-04-08T08:55:43;6.70;99.90
6377;DHT22;3221;48.858;10.128;2023-04-08T08:58:30;6.80;99.90
6377;DHT22;3221;48.858;10.128;2023-04-08T09:00:57;6.80;99.90
6377;DHT22;3221;48.858;10.128;2023-04-08T09:03:26;6.80;99.90
6377;DHT22;3221;48.858;10.128;2023-04-08T09:05:59;6.90;99.90
6377;DHT22;3221;48.858;10.128;2023-04-08T09:08:31;7.00;99.90
6377;DHT22;3221;48.858;10.128;2023-04-08T09:11:12;7.00;99.90
6377;DHT22;3221;48.858;10.128;2023-04-08T09:13:39;6.80;99.90
6377;DHT22;3221;48.858;10.128;2023-04-08T09:16:14;6.90;99.90
6377;DHT22;3221;48.858;10.128;2023-04-08T09:18:45;6.90;99.90
6377;DHT22;3221;48.858;10.128;2023-04-08T09:21:14;7.00;99.90
6377;DHT22;3221;48.858;10.128;2023-04-08T09:23:44;6.90;99.90
6377;DHT22;3221;48.858;10.128;2023-04-08T09:26:12;6.70;99.90
6377;DHT22;3221;48.858;10.128;2023-04-08T09:28:41;6.60;99.90
6377;DHT22;3221;48.858;10.128;2023-04-08T09:31:29;6.70;99.90
6377;DHT22;3221;48.858;10.128;2023-04-08T09:33:59;6.60;99.90
6377;DHT22;3221;48.858;10.128;2023-04-08T09:36:26;6.60;99.90
6377;DHT22;3221;48.858;10.128;2023-04-08T09:38:54;6.70;99.90
6377;DHT22;3221;48.858;10.128;2023-04-08T09:41:21;6.80;99.90
6377;DHT22;3221;48.858;10.128;2023-04-08T09:43:54;6.80;99.90
6377;DHT22;3221;48.858;10.128;2023-04-08T09:46:31;7.00;99.90
6377;DHT22;3221;48.858;10.128;2023-04-08T09:49:11;6.80;99.90
6377;DHT22;3221;48.858;10.128;2023-04-08T09:51:49;6.90;99.90
6377;DHT22;3221;48.858;10.128;2023-04-08T09:54:20;6.80;99.90
6377;DHT22;3221;48.858;10.128;2023-04-08T09:56:56;6.80;99.90
6377;DHT22;3221;48.858;10.128;2023-04-08T09:59:29;6.80;99.90
6377;DHT22;3221;48.858;10.128;2023-04-08T10:02:05;7.00;99.90
6377;DHT22;3221;48.858;10.128;2023-04-08T10:04:35;6.90;99.90
6377;DHT22;3221;48.858;10.128;2023-04-08T10:07:06;6.90;99.90
6377;DHT22;3221;48.858;10.128;2023-04-08T10:09:34;6.90;99.90
6377;DHT22;3221;48.858;10.128;2023-04-08T10:12:03;6.80;99.90
6377;DHT22;3221;48.858;10.128;2023-04-08T10:14:30;6.80;99.90
6377;DHT22;3221;48.858;10.128;2023-04-08T10:17:24;6.80;99.90
6377;DHT22;3221;48.858;10.128;2023-04-08T10:19:52;6.70;99.90
6377;DHT22;3221;48.858;10.128;2023-04-08T10:22:45;6.60;99.90
6377;DHT22;3221;48.858;10.128;2023-04-08T10:28:00;6.60;99.90
6377;DHT22;3221;48.858;10.128;2023-04-08T10:32:54;6.90;99.90
6377;DHT22;3221;48.858;10.128;2023-04-08T10:35:29;6.80;99.90
6377;DHT22;3221;48.858;10.128;2023-04-08T10:37:57;6.70;99.90
6377;DHT22;3221;48.858;10.128;2023-04-08T10:40:24;6.80;99.90
6377;DHT22;3221;48.858;10.128;2023-04-08T10:42:58;6.90;99.90
6377;DHT22;3221;48.858;10.128;2023-04-08T10:45:25;6.60;99.90
6377;DHT22;3221;48.858;10.128;2023-04-08T10:47:52;6.70;99.90
6377;DHT22;3221;48.858;10.128;2023-04-08T10:50:20;6.70;99.90
6377;DHT22;3221;48.858;10.128;2023-04-08T10:52:51;6.70;99.90
6377;DHT22;3221;48.858;10.128;2023-04-08T10:55:36;6.60;99.90
6377;DHT22;3221;48.858;10.128;2023-04-08T10:58:05;6.60;99.90
6377;DHT22;3221;48.858;10.128;2023-04-08T11:00:38;6.80;99.90
6377;DHT22;3221;48.858;10.128;2023-04-08T11:03:07;6.70;99.90
6377;DHT22;3221;48.858;10.128;2023-04-08T11:05:36;6.70;99.90
6377;DHT22;3221;48.858;10.128;2023-04-08T11:08:04;6.60;99.90
6377;DHT22;3221;48.858;10.128;2023-04-08T11:10:36;6.60;99.90
6377;DHT22;3221;48.858;10.128;2023-04-08T11:13:07;6.60;99.90
6377;DHT22;3221;48.858;10.128;2023-04-08T11:15:36;6.60;99.90
6377;DHT22;3221;48.858;10.128;2023-04-08T11:18:04;6.60;99.90
6377;DHT22;3221;48.858;10.128;2023-04-08T11:20:32;6.50;99.90
6377;DHT22;3221;48.858;10.128;2023-04-08T11:23:02;6.80;99.90
6377;DHT22;3221;48.858;10.128;2023-04-08T11:25:29;6.60;99.90
6377;DHT22;3221;48.858;10.128;2023-04-08T11:27:57;6.60;99.90
6377;DHT22;3221;48.858;10.128;2023-04-08T11:30:24;6.70;99.90
6377;DHT22;3221;48.858;10.128;2023-04-08T11:32:51;6.70;99.90
6377;DHT22;3221;48.858;10.128;2023-04-08T11:35:19;6.60;99.90
6377;DHT22;3221;48.858;10.128;2023-04-08T11:37:46;6.80;99.90
6377;DHT22;3221;48.858;10.128;2023-04-08T11:40:19;6.70;99.90
6377;DHT22;3221;48.858;10.128;2023-04-08T11:42:47;6.80;99.90
6377;DHT22;3221;48.858;10.128;2023-04-08T11:45:15;6.70;99.90
6377;DHT22;3221;48.858;10.128;2023-04-08T11:47:43;6.90;99.90
6377;DHT22;3221;48.858;10.128;2023-04-08T11:50:10;6.80;99.90
6377;DHT22;3221;48.858;10.128;2023-04-08T11:52:43;6.80;99.90
6377;DHT22;3221;48.858;10.128;2023-04-08T11:55:20;6.80;99.90
6377;DHT22;3221;48.858;10.128;2023-04-08T11:57:47;6.70;99.90
6377;DHT22;3221;48.858;10.128;2023-04-08T12:00:14;6.70;99.90
6377;DHT22;3221;48.858;10.128;2023-04-08T12:02:41;6.70;99.90
6377;DHT22;3221;48.858;10.128;2023-04-08T12:05:08;6.60;99.90
6377;DHT22;3221;48.858;10.128;2023-04-08T12:07:36;6.60;99.90
6377;DHT22;3221;48.858;10.128;2023-04-08T12:10:04;6.60;99.90
6377;DHT22;3221;48.858;10.128;2023-04-08T12:12:31;6.70;99.90
6377;DHT22;3221;48.858;10.128;2023-04-08T12:14:58;6.60;99.90
6377;DHT22;3221;48.858;10.128;2023-04-08T12:17:25;6.70;99.90
6377;DHT22;3221;48.858;10.128;2023-04-08T12:19:52;6.90;99.90
6377;DHT22;3221;48.858;10.128;2023-04-08T12:22:19;6.80;99.90
6377;DHT22;3221;48.858;10.128;2023-04-08T12:24:46;6.70;99.90
6377;DHT22;3221;48.858;10.128;2023-04-08T12:27:13;6.70;99.90
6377;DHT22;3221;48.858;10.128;2023-04-08T12:29:40;6.70;99.90
6377;DHT22;3221;48.858;10.128;2023-04-08T12:32:07;6.80;99.90
6377;DHT22;3221;48.858;10.128;2023-04-08T12:34:34;6.70;99.90
6377;DHT22;3221;48.858;10.128;2023-04-08T12:37:01;6.80;99.90
6377;DHT22;3221;48.858;10.128;2023-04-08T12:39:28;6.80;99.90
6377;DHT22;3221;48.858;10.128;2023-04-08T12:41:55;6.90;99.90
6377;DHT22;3221;48.858;10.128;2023-04-08T12:44:22;6.80;99.90
6377;DHT22;3221;48.858;10.128;2023-04-08T12:46:49;6.80;99.90
6377;DHT22;3221;48.858;10.128;2023-04-08T12:49:16;6.70;99.90
6377;DHT22;3221;48.858;10.128;2023-04-08T12:51:43;6.70;99.90
6377;DHT22;3221;48.858;10.128;2023-04-08T12:54:11;6.70;99.90
6377;DHT22;3221;48.858;10.128;2023-04-08T12:56:38;6.90;99.90
6377;DHT22;3221;48.858;10.128;2023-04-08T12:59:05;6.90;99.90
6377;DHT22;3221;48.858;10.128;2023-04-08T13:01:32;6.50;99.90
6377;DHT22;3221;48.858;10.128;2023-04-08T13:03:59;6.60;99.90
6377;DHT22;3221;48.858;10.128;2023-04-08T13:06:26;6.40;99.90
6377;DHT22;3221;48.858;10.128;2023-04-08T13:08:54;6.60;99.90
6377;DHT22;3221;48.858;10.128;2023-04-08T13:11:21;6.40;99.90
6377;DHT22;3221;48.858;10.128;2023-04-08T13:13:48;6.30;99.90
6377;DHT22;3221;48.858;10.128;2023-04-08T13:16:15;6.70;99.90
6377;DHT22;3221;48.858;10.128;2023-04-08T13:18:42;6.60;99.90
6377;DHT22;3221;48.858;10.128;2023-04-08T13:21:09;6.80;99.90
6377;DHT22;3221;48.858;10.128;2023-04-08T13:23:36;6.70;99.90
6377;DHT22;3221;48.858;10.128;2023-04-08T13:26:03;6.60;99.90
6377;DHT22;3221;48.858;10.128;2023-04-08T13:28:30;6.60;99.90
6377;DHT22;3221;48.858;10.128;2023-04-08T13:30:57;6.80;99.90
6377;DHT22;3221;48.858;10.128;2023-04-08T13:33:24;6.80;99.90
6377;DHT22;3221;48.858;10.128;2023-04-08T13:35:51;6.80;99.90
6377;DHT22;3221;48.858;10.128;2023-04-08T13:38:18;6.90;99.90
6377;DHT22;3221;48.858;10.128;2023-04-08T13:40:45;6.70;99.90
6377;DHT22;3221;48.858;10.128;2023-04-08T13:43:14;6.70;99.90
6377;DHT22;3221;48.858;10.128;2023-04-08T13:45:42;6.70;99.90
6377;DHT22;3221;48.858;10.128;2023-04-08T13:48:09;6.70;99.90
6377;DHT22;3221;48.858;10.128;2023-04-08T13:50:36;6.70;99.90
6377;DHT22;3221;48.858;10.128;2023-04-08T13:53:04;6.80;99.90
6377;DHT22;3221;48.858;10.128;2023-04-08T13:55:31;6.60;99.90
6377;DHT22;3221;48.858;10.128;2023-04-08T13:57:58;6.70;99.90
6377;DHT22;3221;48.858;10.128;2023-04-08T14:00:25;6.70;99.90
6377;DHT22;3221;48.858;10.128;2023-04-08T14:02:52;6.80;99.90
6377;DHT22;3221;48.858;10.128;2023-04-08T14:05:19;6.90;99.90
6377;DHT22;3221;48.858;10.128;2023-04-08T14:07:46;6.70;99.90
6377;DHT22;3221;48.858;10.128;2023-04-08T14:10:13;6.70;99.90
6377;DHT22;3221;48.858;10.128;2023-04-08T14:12:41;6.60;99.90
6377;DHT22;3221;48.858;10.128;2023-04-08T14:15:08;6.70;99.90
6377;DHT22;3221;48.858;10.128;2023-04-08T14:17:35;6.80;99.90
6377;DHT22;3221;48.858;10.128;2023-04-08T14:20:03;6.80;99.90
6377;DHT22;3221;48.858;10.128;2023-04-08T14:22:32;6.80;99.90
6377;DHT22;3221;48.858;10.128;2023-04-08T14:24:59;6.90;99.90
6377;DHT22;3221;48.858;10.128;2023-04-08T14:27:26;6.90;99.90
6377;DHT22;3221;48.858;10.128;2023-04-08T14:29:53;6.90;99.90
6377;DHT22;3221;48.858;10.128;2023-04-08T14:32:20;6.80;99.90
6377;DHT22;3221;48.858;10.128;2023-04-08T14:34:47;6.70;99.90
6377;DHT22;3221;48.858;10.128;2023-04-08T14:37:14;6.70;99.90
6377;DHT22;3221;48.858;10.128;2023-04-08T14:39:43;6.60;99.90
6377;DHT22;3221;48.858;10.128;2023-04-08T14:42:10;6.70;99.90
6377;DHT22;3221;48.858;10.128;2023-04-08T14:44:37;6.70;99.90
6377;DHT22;3221;48.858;10.128;2023-04-08T14:47:04;6.80;99.90
6377;DHT22;3221;48.858;10.128;2023-04-08T14:49:31;6.80;99.90
6377;DHT22;3221;48.858;10.128;2023-04-08T14:51:58;6.90;99.90
6377;DHT22;3221;48.858;10.128;2023-04-08T14:54:25;6.80;99.90
6377;DHT22;3221;48.858;10.128;2023-04-08T14:56:52;6.70;99.90
6377;DHT22;3221;48.858;10.128;2023-04-08T14:59:19;6.70;99.90
6377;DHT22;3221;48.858;10.128;2023-04-08T15:01:46;6.60;99.90
6377;DHT22;3221;48.858;10.128;2023-04-08T15:04:13;6.80;99.90
6377;DHT22;3221;48.858;10.128;2023-04-08T15:06:41;6.70;99.90
6377;DHT22;3221;48.858;10.128;2023-04-08T15:09:08;6.70;99.90
6377;DHT22;3221;48.858;10.128;2023-04-08T15:11:35;6.70;99.90
6377;DHT22;3221;48.858;10.128;2023-04-08T15:14:01;6.70;99.90
6377;DHT22;3221;48.858;10.128;2023-04-08T15:16:28;6.80;99.90
6377;DHT22;3221;48.858;10.128;2023-04-08T15:18:55;6.80;99.90
6377;DHT22;3221;48.858;10.128;2023-04-08T15:21:25;6.70;99.90
6377;DHT22;3221;48.858;10.128;2023-04-08T15:23:53;6.60;99.90
6377;DHT22;3221;48.858;10.128;2023-04-08T15:26:19;6.70;99.90
6377;DHT22;3221;48.858;10.128;2023-04-08T15:28:47;6.70;99.90
6377;DHT22;3221;48.858;10.128;2023-04-08T15:31:15;6.90;99.90
6377;DHT22;3221;48.858;10.128;2023-04-08T15:33:42;7.00;99.90
6377;DHT22;3221;48.858;10.128;2023-04-08T15:36:13;7.00;99.90
6377;DHT22;3221;48.858;10.128;2023-04-08T15:38:46;7.10;99.90
6377;DHT22;3221;48.858;10.128;2023-04-08T15:41:17;6.80;99.90
6377;DHT22;3221;48.858;10.128;2023-04-08T15:43:45;6.80;99.90
6377;DHT22;3221;48.858;10.128;2023-04-08T15:46:19;6.80;99.90
6377;DHT22;3221;48.858;10.128;2023-04-08T15:48:47;6.80;99.90
6377;DHT22;3221;48.858;10.128;2023-04-08T15:51:15;6.90;99.90
6377;DHT22;3221;48.858;10.128;2023-04-08T15:53:42;6.80;99.90
6377;DHT22;3221;48.858;10.128;2023-04-08T15:56:13;6.90;99.90
6377;DHT22;3221;48.858;10.128;2023-04-08T15:58:42;6.70;99.90
6377;DHT22;3221;48.858;10.128;2023-04-08T16:01:09;6.70;99.90
6377;DHT22;3221;48.858;10.128;2023-04-08T16:03:37;6.80;99.90
6377;DHT22;3221;48.858;10.128;2023-04-08T16:06:04;6.80;99.90
6377;DHT22;3221;48.858;10.128;2023-04-08T16:08:33;6.70;99.90
6377;DHT22;3221;48.858;10.128;2023-04-08T16:11:02;6.60;99.90
6377;DHT22;3221;48.858;10.128;2023-04-08T16:13:29;6.70;99.90
6377;DHT22;3221;48.858;10.128;2023-04-08T16:16:03;6.70;99.90
6377;DHT22;3221;48.858;10.128;2023-04-08T16:18:30;6.80;99.90
6377;DHT22;3221;48.858;10.128;2023-04-08T16:20:57;6.80;99.90